Aeroporto :
LOGIN :

Iscrizione | Disclaimer

   EN    FR    IT 

 










Sommario :    VFR   VFR Marginale   IFR   IFR Intensivo   IFR Molto Intensivo
Visibilità : 
Base nubi : 
>= 8 km
>= 3000ft
5 / 8 km
1000 / 3000 ft
1500m / 5 km
500 / 1000 ft
800 / 1500m
200 / 500 ft
< 800m
< 200 ft
Simboli :   Temporali  Nebbia  Neve Forte  Precipitazioni Forti  Vento > 20 kt
SIGMETs :   Varie  Temporali  Ghiacco  Turbolenza  Onda orograficha  Ceneri Vulcaniche






- Altitudine del aeroporto : 148 ft
- Codice IATA : KHE


UKOH - Chernobayevka

ULTIMO METAR :
  • 261100Z 19011MPS CAVOK 12/05 Q1001 R21/CLRD65 NOSIG

METARs OBSOLETI :
  • 261030Z 20011MPS CAVOK 12/05 Q1001 R21/CLRD65 NOSIG
  • 261000Z 19011MPS CAVOK 12/05 Q1002 R21/CLRD65 NOSIG
  • 260930Z 19012MPS CAVOK 12/05 Q1002 R21/CLRD65 NOSIG
  • 260900Z 19012MPS CAVOK 12/05 Q1002 R21/CLRD65 NOSIG
  • 260830Z 20011MPS 170V250 CAVOK 11/05 Q1003 R21/CLRD65 NOSIG

TAF TAF UKOH
Valido dal 26 a 09 ore il 26 a 18 ore UTC


260805Z 2609/2618 18009G15MPS 9999 BKN025



MetMap, La meteo Aeronautica in un colpo d'occhio ! - Copyright ORBIFLY Dicembre 2007 - Disclaimer

ORBIFLY MET'MAP TEAM :

Programmazione e sviluppo : Alexandra Zaïnal
Concezione : Baudouin d'Aumeries
Aiuto per la programmazione : Marc-Olivier Méhu
Supporto tecnico e logistico : Manuel Goepfert
Aiuto per la traduzione : Arnaldo La Scala

Contatto : metmap@orbifly.com




FONTI E CREDITI :

   NOAA